createdAt,value
2023-04-10T00:00:33.324Z,46.92
2023-04-10T00:03:04.327Z,51.40
2023-04-10T00:05:32.773Z,56.92
2023-04-10T00:07:59.920Z,49.95
2023-04-10T00:10:29.429Z,49.63
2023-04-10T00:12:56.895Z,51.28
2023-04-10T00:15:24.141Z,49.08
2023-04-10T00:17:55.358Z,47.78
2023-04-10T00:20:23.488Z,44.92
2023-04-10T00:22:50.905Z,44.58
2023-04-10T00:25:18.204Z,44.97
2023-04-10T00:27:45.323Z,52.30
2023-04-10T00:30:12.794Z,52.97
2023-04-10T00:32:40.168Z,47.88
2023-04-10T00:35:09.070Z,51.92
2023-04-10T00:37:36.711Z,46.50
2023-04-10T00:40:04.807Z,48.72
2023-04-10T00:42:32.763Z,50.00
2023-04-10T00:45:00.731Z,44.42
2023-04-10T00:47:28.657Z,54.03
2023-04-10T00:49:56.121Z,45.53
2023-04-10T00:52:26.195Z,47.08
2023-04-10T00:54:53.556Z,47.55
2023-04-10T00:57:20.882Z,50.72
2023-04-10T00:59:49.101Z,46.17
2023-04-10T01:02:16.530Z,46.75
2023-04-10T01:04:44.496Z,46.85
2023-04-10T01:07:19.064Z,43.15
2023-04-10T01:12:55.994Z,48.55
2023-04-10T01:15:26.793Z,48.53
2023-04-10T01:18:14.969Z,47.50
2023-04-10T01:20:42.675Z,53.78
2023-04-10T01:23:21.911Z,43.50
2023-04-10T01:25:59.495Z,48.65
2023-04-10T01:28:55.611Z,42.60
2023-04-10T01:31:47.233Z,45.08
2023-04-10T01:34:23.892Z,45.97
2023-04-10T01:37:00.000Z,46.78
2023-04-10T01:39:29.223Z,46.47
2023-04-10T01:42:00.638Z,45.63
2023-04-10T01:44:43.337Z,46.92
2023-04-10T01:47:13.410Z,44.95
2023-04-10T01:49:45.226Z,49.28
2023-04-10T01:52:13.689Z,45.55
2023-04-10T01:54:45.650Z,49.05
2023-04-10T01:57:17.408Z,37.55
2023-04-10T01:59:52.810Z,46.90
2023-04-10T02:02:20.395Z,52.58
2023-04-10T02:04:51.801Z,54.60
2023-04-10T02:07:36.885Z,65.88
2023-04-10T02:13:03.912Z,49.28
2023-04-10T02:15:32.813Z,43.30
2023-04-10T02:18:04.436Z,52.17
2023-04-10T02:20:32.608Z,44.38
2023-04-10T02:23:03.851Z,45.83
2023-04-10T02:25:35.751Z,43.42
2023-04-10T02:28:06.426Z,42.42
2023-04-10T02:30:34.160Z,46.35
2023-04-10T02:33:01.674Z,45.40
2023-04-10T02:35:31.565Z,44.85
2023-04-10T02:37:58.839Z,44.10
2023-04-10T02:40:26.366Z,46.65
2023-04-10T02:43:13.776Z,48.78
2023-04-10T02:45:42.008Z,43.15
2023-04-10T02:48:12.074Z,42.20
2023-04-10T02:50:39.831Z,44.17
2023-04-10T02:53:06.966Z,45.00
2023-04-10T02:55:34.248Z,46.97
2023-04-10T02:58:01.403Z,48.47
2023-04-10T03:00:29.124Z,51.28
2023-04-10T03:03:12.340Z,50.08
2023-04-10T03:05:47.186Z,54.10
2023-04-10T03:08:16.209Z,53.95
2023-04-10T03:10:48.729Z,46.78
2023-04-10T03:13:16.316Z,43.30
2023-04-10T03:15:43.683Z,50.78
2023-04-10T03:18:10.956Z,47.65
2023-04-10T03:20:41.114Z,50.53
2023-04-10T03:23:08.978Z,51.53
2023-04-10T03:25:36.648Z,50.55
2023-04-10T03:28:06.960Z,44.83
2023-04-10T03:30:37.275Z,46.13
2023-04-10T03:33:04.911Z,45.30
2023-04-10T03:35:32.141Z,49.03
2023-04-10T03:38:00.553Z,48.30
2023-04-10T03:40:27.968Z,46.45
2023-04-10T03:42:55.696Z,46.80
2023-04-10T03:45:23.424Z,45.17
2023-04-10T03:47:51.789Z,44.55
2023-04-10T03:50:19.970Z,45.85
2023-04-10T03:52:53.277Z,45.60
2023-04-10T03:55:22.965Z,45.97
2023-04-10T03:57:51.725Z,47.50
2023-04-10T04:00:22.778Z,52.95
2023-04-10T04:02:54.174Z,57.60
2023-04-10T04:05:40.228Z,56.65
2023-04-10T04:08:25.859Z,50.22
2023-04-10T04:11:11.637Z,50.22
2023-04-10T04:14:01.758Z,48.85
2023-04-10T04:16:46.348Z,47.05
2023-04-10T04:19:45.738Z,45.35
2023-04-10T04:22:24.084Z,52.05
2023-04-10T04:25:16.365Z,51.65
2023-04-10T04:28:04.393Z,47.63
2023-04-10T04:30:36.040Z,47.58
2023-04-10T04:33:17.694Z,44.85
2023-04-10T04:36:23.156Z,45.35
2023-04-10T04:39:09.071Z,43.22
2023-04-10T04:42:04.578Z,49.08
2023-04-10T04:44:49.030Z,47.08
2023-04-10T04:47:36.418Z,45.13
2023-04-10T04:50:26.210Z,44.67
2023-04-10T04:53:16.018Z,45.13
2023-04-10T04:56:03.172Z,47.38
2023-04-10T04:59:02.547Z,46.80
2023-04-10T05:01:50.629Z,50.15
2023-04-10T05:04:25.775Z,47.17
2023-04-10T05:06:56.228Z,46.85
2023-04-10T05:09:42.396Z,45.95
2023-04-10T05:12:42.009Z,46.47
2023-04-10T05:15:25.765Z,47.22
2023-04-10T05:18:26.025Z,50.05
2023-04-10T05:21:07.174Z,47.95
2023-04-10T05:23:52.722Z,44.63
2023-04-10T05:26:40.984Z,44.55
2023-04-10T05:29:31.389Z,41.55
2023-04-10T05:32:10.990Z,43.72
2023-04-10T05:34:43.708Z,40.67
2023-04-10T05:37:31.235Z,40.30
2023-04-10T05:40:21.723Z,41.15
2023-04-10T05:43:07.385Z,41.97
2023-04-10T05:45:54.760Z,40.35
2023-04-10T05:48:37.733Z,38.15
2023-04-10T05:51:37.057Z,39.83
2023-04-10T05:54:22.767Z,42.30
2023-04-10T05:57:08.439Z,42.20
2023-04-10T06:00:02.474Z,43.75
2023-04-10T06:02:50.151Z,44.80
2023-04-10T06:07:58.681Z,46.95
2023-04-10T06:10:29.859Z,43.60
2023-04-10T06:12:57.796Z,49.22
2023-04-10T06:15:26.283Z,46.30
2023-04-10T06:17:54.269Z,41.95
2023-04-10T06:20:21.830Z,50.88
2023-04-10T06:22:51.594Z,43.20
2023-04-10T06:25:19.318Z,45.88
2023-04-10T06:27:46.685Z,49.63
2023-04-10T06:30:14.258Z,47.25
2023-04-10T06:32:41.869Z,41.38
2023-04-10T06:35:09.939Z,45.17
2023-04-10T06:37:37.186Z,39.28
2023-04-10T06:40:10.209Z,37.25
2023-04-10T06:42:38.305Z,35.38
2023-04-10T06:45:22.762Z,35.90
2023-04-10T06:47:50.044Z,42.78
2023-04-10T06:50:17.297Z,37.75
2023-04-10T06:52:45.641Z,34.20
2023-04-10T06:55:15.782Z,33.40
2023-04-10T06:57:43.744Z,36.47
2023-04-10T07:00:11.282Z,35.67
2023-04-10T07:02:38.455Z,31.42
2023-04-10T07:05:06.001Z,31.42
2023-04-10T07:07:33.134Z,35.28
2023-04-10T07:10:00.226Z,33.67
2023-04-10T07:12:27.566Z,38.58
2023-04-10T07:14:54.818Z,38.97
2023-04-10T07:17:22.674Z,38.88
2023-04-10T07:19:49.904Z,37.85
2023-04-10T07:22:19.534Z,37.47
2023-04-10T07:24:46.741Z,40.70
2023-04-10T07:27:13.954Z,35.00
2023-04-10T07:29:41.246Z,35.45
2023-04-10T07:32:08.514Z,33.92
2023-04-10T07:34:36.722Z,34.30
2023-04-10T07:37:03.914Z,37.58
2023-04-10T07:39:31.016Z,35.92
2023-04-10T07:41:58.296Z,33.55
2023-04-10T07:44:27.242Z,50.50
2023-04-10T07:46:54.488Z,39.97
2023-04-10T07:49:21.675Z,40.92
2023-04-10T07:51:48.825Z,43.97
2023-04-10T07:54:15.980Z,36.65
2023-04-10T07:56:43.159Z,36.97
2023-04-10T07:59:10.526Z,38.78
2023-04-10T08:01:37.706Z,44.35
2023-04-10T08:04:06.109Z,30.38
2023-04-10T08:06:33.449Z,50.60
2023-04-10T08:09:02.118Z,33.97
2023-04-10T08:11:32.111Z,33.10
2023-04-10T08:14:01.987Z,34.70
2023-04-10T08:16:30.759Z,32.80
2023-04-10T08:18:58.847Z,36.47
2023-04-10T08:21:27.442Z,36.90
2023-04-10T08:23:56.625Z,39.20
2023-04-10T08:26:25.042Z,35.33
2023-04-10T08:28:53.662Z,37.70
2023-04-10T08:31:23.056Z,32.78
2023-04-10T08:33:50.639Z,33.42
2023-04-10T08:36:20.192Z,31.05
2023-04-10T08:38:48.470Z,32.85
2023-04-10T08:41:17.595Z,31.33
2023-04-10T08:43:46.401Z,31.88
2023-04-10T08:46:15.003Z,31.05
2023-04-10T08:49:03.036Z,29.63
2023-04-10T08:51:56.939Z,31.83
2023-04-10T08:54:29.403Z,30.20
2023-04-10T08:56:58.620Z,32.78
2023-04-10T08:59:27.792Z,30.05
2023-04-10T09:01:55.775Z,31.00
2023-04-10T09:04:26.875Z,30.90
2023-04-10T09:06:54.082Z,32.65
2023-04-10T09:09:21.390Z,32.55
2023-04-10T09:12:00.536Z,33.45
2023-04-10T09:14:30.377Z,32.42
2023-04-10T09:17:17.225Z,32.20
2023-04-10T09:19:49.990Z,37.03
2023-04-10T09:22:17.436Z,30.73
2023-04-10T09:24:47.555Z,33.40
2023-04-10T09:27:39.392Z,28.27
2023-04-10T09:30:08.476Z,38.55
2023-04-10T09:32:36.997Z,35.90
2023-04-10T09:35:05.943Z,31.90
2023-04-10T09:37:34.197Z,32.08
2023-04-10T09:40:01.535Z,33.00
2023-04-10T09:42:37.482Z,33.33
2023-04-10T09:45:06.060Z,32.47
2023-04-10T09:47:34.405Z,34.25
2023-04-10T09:50:01.802Z,34.03
2023-04-10T09:52:38.269Z,34.58
2023-04-10T09:55:09.539Z,38.30
2023-04-10T09:57:36.780Z,37.25
2023-04-10T10:00:07.258Z,37.50
2023-04-10T10:02:41.375Z,40.42
2023-04-10T10:05:10.225Z,39.85
2023-04-10T10:07:38.471Z,38.78
2023-04-10T10:10:09.234Z,39.75
2023-04-10T10:12:50.668Z,44.95
2023-04-10T10:15:36.033Z,42.33
2023-04-10T10:18:29.834Z,44.75
2023-04-10T10:20:57.778Z,42.38
2023-04-10T10:23:25.900Z,42.70
2023-04-10T10:25:54.792Z,44.92
2023-04-10T10:28:22.701Z,41.67
2023-04-10T10:30:50.023Z,37.53
2023-04-10T10:33:18.666Z,36.53
2023-04-10T10:35:46.954Z,37.63
2023-04-10T10:38:14.879Z,34.15
2023-04-10T10:41:11.613Z,34.95
2023-04-10T10:44:00.360Z,34.30
2023-04-10T10:46:49.572Z,32.30
2023-04-10T10:49:16.788Z,36.08
2023-04-10T10:51:49.394Z,31.13
2023-04-10T10:54:34.379Z,31.25
2023-04-10T10:57:02.968Z,34.10
2023-04-10T10:59:48.809Z,36.15
2023-04-10T11:02:17.509Z,39.15
2023-04-10T11:04:49.181Z,34.85
2023-04-10T11:07:17.050Z,38.10
2023-04-10T11:09:52.009Z,36.10
2023-04-10T11:12:24.605Z,38.63
2023-04-10T11:15:04.433Z,35.47
2023-04-10T11:17:51.976Z,39.97
2023-04-10T11:20:22.080Z,38.78
2023-04-10T11:23:11.266Z,35.58
2023-04-10T11:25:52.817Z,37.20
2023-04-10T11:28:33.041Z,40.55
2023-04-10T11:31:20.851Z,36.30
2023-04-10T11:34:08.124Z,36.45
2023-04-10T11:36:38.948Z,38.42
2023-04-10T11:39:17.891Z,36.47
2023-04-10T11:41:49.449Z,40.10
2023-04-10T11:44:28.587Z,40.63
2023-04-10T11:46:55.948Z,36.15
2023-04-10T11:49:28.385Z,36.42
2023-04-10T11:51:55.928Z,34.92
2023-04-10T11:54:24.998Z,34.00
2023-04-10T11:57:00.163Z,30.73
2023-04-10T11:59:28.446Z,31.23
2023-04-10T12:02:09.705Z,30.95
2023-04-10T12:04:37.968Z,28.65
2023-04-10T12:07:05.555Z,31.63
2023-04-10T12:09:32.870Z,28.60
2023-04-10T12:12:03.564Z,30.70
2023-04-10T12:14:31.255Z,25.83
2023-04-10T12:16:59.786Z,26.13
2023-04-10T12:19:27.777Z,24.90
2023-04-10T12:21:56.450Z,30.33
2023-04-10T12:24:49.211Z,23.15
2023-04-10T12:27:23.306Z,16.35
2023-04-10T12:29:53.808Z,17.70
2023-04-10T12:32:22.372Z,15.48
2023-04-10T12:35:01.535Z,15.30
2023-04-10T12:37:49.233Z,11.23
2023-04-10T12:40:16.857Z,10.52
2023-04-10T12:42:44.480Z,10.23
2023-04-10T12:45:14.103Z,9.05
2023-04-10T12:47:47.130Z,9.25
2023-04-10T12:50:16.231Z,12.23
2023-04-10T12:53:01.782Z,13.23
2023-04-10T12:55:33.010Z,12.70
2023-04-10T12:58:17.660Z,11.35
2023-04-10T13:00:44.848Z,11.00
2023-04-10T13:03:12.316Z,11.45
2023-04-10T13:05:39.697Z,11.07
2023-04-10T13:08:06.977Z,10.30
2023-04-10T13:10:34.168Z,16.75
2023-04-10T13:13:02.538Z,11.85
2023-04-10T13:15:29.766Z,14.63
2023-04-10T13:17:56.957Z,10.02
2023-04-10T13:20:24.411Z,9.93
2023-04-10T13:22:51.628Z,19.20
2023-04-10T13:25:18.872Z,19.23
2023-04-10T13:27:46.001Z,12.32
2023-04-10T13:30:13.326Z,11.63
2023-04-10T13:32:40.701Z,10.48
2023-04-10T13:35:09.094Z,45.03
2023-04-10T13:37:36.808Z,15.63
2023-04-10T13:40:05.383Z,11.98
2023-04-10T13:42:32.596Z,16.58
2023-04-10T13:45:00.214Z,16.83
2023-04-10T13:47:29.031Z,20.40
2023-04-10T13:49:56.350Z,15.15
2023-04-10T13:52:23.641Z,36.90
2023-04-10T13:54:51.072Z,16.48
2023-04-10T13:57:18.610Z,15.75
2023-04-10T13:59:45.932Z,14.02
2023-04-10T14:02:13.449Z,15.40
2023-04-10T14:04:42.700Z,12.40
2023-04-10T14:07:10.298Z,14.75
2023-04-10T14:09:37.813Z,31.35
2023-04-10T14:12:05.037Z,17.52
2023-04-10T14:14:32.317Z,27.13
2023-04-10T14:16:59.480Z,16.90
2023-04-10T14:19:26.649Z,18.90
2023-04-10T14:21:53.890Z,17.13
2023-04-10T14:24:21.750Z,19.05
2023-04-10T14:26:48.942Z,17.63
2023-04-10T14:29:18.157Z,17.35
2023-04-10T14:31:57.142Z,16.98
2023-04-10T14:34:24.846Z,18.63
2023-04-10T14:36:55.913Z,17.17
2023-04-10T14:39:24.629Z,18.67
2023-04-10T14:41:52.110Z,18.13
2023-04-10T14:44:19.294Z,17.70
2023-04-10T14:46:46.571Z,18.10
2023-04-10T14:49:15.252Z,18.95
2023-04-10T14:51:48.321Z,19.35
2023-04-10T14:54:21.742Z,23.30
2023-04-10T14:56:49.459Z,19.40
2023-04-10T14:59:17.549Z,23.17
2023-04-10T15:01:44.838Z,23.35
2023-04-10T15:04:12.205Z,20.77
2023-04-10T15:06:39.407Z,20.73
2023-04-10T15:09:06.697Z,22.98
2023-04-10T15:11:33.854Z,20.83
2023-04-10T15:14:02.293Z,20.70
2023-04-10T15:16:30.481Z,23.42
2023-04-10T15:18:57.715Z,21.00
2023-04-10T15:21:24.933Z,20.00
2023-04-10T15:23:52.403Z,20.48
2023-04-10T15:26:21.322Z,22.10
2023-04-10T15:28:48.601Z,20.02
2023-04-10T15:31:16.615Z,21.73
2023-04-10T15:33:44.209Z,22.58
2023-04-10T15:36:11.446Z,22.65
2023-04-10T15:38:38.702Z,20.23
2023-04-10T15:41:12.862Z,20.77
2023-04-10T15:43:40.029Z,18.10
2023-04-10T15:46:07.345Z,22.30
2023-04-10T15:48:34.585Z,21.95
2023-04-10T15:51:08.674Z,20.75
2023-04-10T15:53:35.948Z,18.95
2023-04-10T15:56:07.029Z,24.17
2023-04-10T15:58:34.306Z,21.25
2023-04-10T16:01:02.204Z,18.33
2023-04-10T16:03:30.552Z,18.55
2023-04-10T16:05:58.564Z,22.85
2023-04-10T16:08:26.541Z,23.45
2023-04-10T16:10:54.317Z,21.00
2023-04-10T16:13:21.532Z,23.73
2023-04-10T16:15:50.069Z,22.63
2023-04-10T16:18:17.643Z,26.52
2023-04-10T16:20:44.817Z,30.92
2023-04-10T16:23:12.021Z,27.50
2023-04-10T16:25:39.174Z,24.55
2023-04-10T16:28:08.222Z,28.25
2023-04-10T16:30:36.121Z,24.80
2023-04-10T16:33:04.354Z,28.23
2023-04-10T16:35:32.329Z,26.23
2023-04-10T16:37:59.604Z,27.80
2023-04-10T16:40:32.923Z,27.00
2023-04-10T16:43:02.072Z,25.17
2023-04-10T16:45:29.520Z,25.55
2023-04-10T16:47:56.772Z,24.45
2023-04-10T16:50:24.068Z,24.55
2023-04-10T16:52:51.236Z,28.38
2023-04-10T16:55:18.540Z,27.23
2023-04-10T16:57:46.315Z,33.38
2023-04-10T17:00:13.930Z,38.75
2023-04-10T17:02:42.856Z,39.17
2023-04-10T17:05:11.215Z,29.67
2023-04-10T17:07:38.487Z,25.02
2023-04-10T17:10:06.201Z,32.58
2023-04-10T17:12:33.454Z,28.58
2023-04-10T17:15:00.760Z,25.40
2023-04-10T17:17:28.401Z,23.27
2023-04-10T17:19:55.748Z,23.52
2023-04-10T17:22:23.456Z,23.75
2023-04-10T17:24:50.673Z,26.65
2023-04-10T17:27:17.817Z,26.27
2023-04-10T17:29:45.080Z,25.30
2023-04-10T17:32:12.271Z,20.92
2023-04-10T17:34:39.469Z,20.60
2023-04-10T17:37:06.934Z,17.52
2023-04-10T17:39:34.189Z,21.90
2023-04-10T17:42:01.600Z,20.05
2023-04-10T17:44:28.794Z,19.15
2023-04-10T17:46:56.053Z,19.58
2023-04-10T17:49:23.679Z,18.30
2023-04-10T17:51:51.010Z,20.20
2023-04-10T17:54:18.266Z,21.65
2023-04-10T17:56:45.500Z,21.13
2023-04-10T17:59:12.753Z,20.95
2023-04-10T18:01:40.188Z,18.95
2023-04-10T18:04:07.633Z,19.45
2023-04-10T18:06:35.180Z,21.00
2023-04-10T18:09:02.437Z,18.92
2023-04-10T18:11:29.915Z,19.88
2023-04-10T18:13:57.147Z,18.42
2023-04-10T18:16:24.497Z,21.10
2023-04-10T18:18:51.917Z,20.77
2023-04-10T18:21:19.413Z,20.27
2023-04-10T18:23:46.672Z,20.15
2023-04-10T18:26:13.960Z,22.77
2023-04-10T18:28:43.176Z,23.05
2023-04-10T18:31:12.673Z,19.45
2023-04-10T18:33:39.992Z,18.58
2023-04-10T18:36:07.780Z,23.23
2023-04-10T18:38:35.475Z,24.55
2023-04-10T18:41:02.734Z,25.80
2023-04-10T18:43:30.008Z,21.52
2023-04-10T18:45:57.207Z,21.10
2023-04-10T18:48:24.566Z,20.27
2023-04-10T18:50:55.828Z,20.23
2023-04-10T18:53:23.350Z,21.23
2023-04-10T18:55:54.585Z,20.50
2023-04-10T18:58:22.544Z,21.80
2023-04-10T19:00:49.954Z,21.92
2023-04-10T19:03:17.479Z,24.52
2023-04-10T19:05:44.921Z,25.85
2023-04-10T19:08:14.587Z,21.13
2023-04-10T19:10:43.026Z,22.35
2023-04-10T19:13:11.981Z,21.70
2023-04-10T19:15:47.405Z,20.92
2023-04-10T19:18:15.929Z,20.60
2023-04-10T19:20:50.394Z,22.95
2023-04-10T19:23:19.814Z,28.58
2023-04-10T19:25:50.891Z,27.95
2023-04-10T19:28:18.034Z,26.17
2023-04-10T19:30:45.521Z,28.60
2023-04-10T19:33:12.794Z,26.10
2023-04-10T19:35:40.237Z,26.73
2023-04-10T19:38:07.423Z,27.35
2023-04-10T19:40:36.216Z,26.77
2023-04-10T19:43:03.871Z,26.45
2023-04-10T19:45:32.542Z,28.80
2023-04-10T19:48:00.390Z,31.13
2023-04-10T19:50:30.121Z,24.15
2023-04-10T19:52:58.138Z,32.22
2023-04-10T19:55:25.689Z,26.73
2023-04-10T19:57:53.001Z,24.92
2023-04-10T20:00:20.548Z,26.40
2023-04-10T20:02:47.957Z,31.75
2023-04-10T20:05:15.289Z,22.05
2023-04-10T20:07:42.584Z,21.70
2023-04-10T20:10:10.124Z,24.83
2023-04-10T20:12:37.416Z,53.28
2023-04-10T20:15:05.342Z,41.17
2023-04-10T20:17:32.605Z,45.15
2023-04-10T20:19:59.845Z,25.25
2023-04-10T20:22:27.170Z,23.40
2023-04-10T20:24:54.440Z,22.38
2023-04-10T20:27:21.719Z,24.15
2023-04-10T20:29:49.109Z,28.58
2023-04-10T20:32:16.292Z,24.17
2023-04-10T20:34:43.597Z,26.15
2023-04-10T20:37:13.364Z,30.67
2023-04-10T20:39:40.620Z,38.10
2023-04-10T20:42:07.978Z,30.70
2023-04-10T20:44:38.953Z,33.45
2023-04-10T20:47:06.984Z,32.83
2023-04-10T20:49:37.517Z,35.35
2023-04-10T20:52:06.334Z,34.45
2023-04-10T20:54:33.960Z,32.63
2023-04-10T20:57:01.864Z,28.13
2023-04-10T20:59:29.585Z,30.52
2023-04-10T21:01:57.896Z,34.25
2023-04-10T21:04:25.406Z,31.88
2023-04-10T21:06:53.004Z,33.75
2023-04-10T21:09:20.981Z,33.92
2023-04-10T21:11:48.275Z,37.40
2023-04-10T21:14:15.537Z,38.10
2023-04-10T21:16:42.823Z,41.30
2023-04-10T21:19:10.059Z,37.60
2023-04-10T21:21:37.672Z,35.78
2023-04-10T21:24:05.817Z,35.55
2023-04-10T21:26:32.955Z,38.92
2023-04-10T21:29:00.159Z,38.17
2023-04-10T21:31:27.311Z,36.30
2023-04-10T21:33:54.475Z,39.25
2023-04-10T21:36:21.662Z,43.33
2023-04-10T21:38:48.980Z,42.60
2023-04-10T21:41:16.175Z,45.45
2023-04-10T21:43:43.604Z,43.85
2023-04-10T21:46:11.060Z,43.83
2023-04-10T21:48:38.360Z,46.30
2023-04-10T21:51:05.885Z,41.88
2023-04-10T21:53:32.984Z,45.97
2023-04-10T21:56:00.206Z,48.40
2023-04-10T21:58:27.399Z,45.65
2023-04-10T22:00:54.785Z,47.10
2023-04-10T22:03:22.366Z,48.83
2023-04-10T22:05:50.611Z,47.03
2023-04-10T22:08:20.004Z,44.60
2023-04-10T22:10:48.177Z,50.55
2023-04-10T22:13:27.555Z,43.03
2023-04-10T22:16:02.782Z,47.20
2023-04-10T22:18:30.242Z,43.85
2023-04-10T22:20:57.436Z,45.70
2023-04-10T22:23:24.817Z,46.75
2023-04-10T22:25:52.067Z,51.92
2023-04-10T22:28:19.253Z,53.35
2023-04-10T22:30:46.549Z,59.08
2023-04-10T22:33:13.785Z,50.28
2023-04-10T22:35:41.021Z,58.55
2023-04-10T22:38:09.358Z,60.10
2023-04-10T22:40:36.782Z,61.97
2023-04-10T22:43:03.967Z,56.30
2023-04-10T22:45:31.212Z,51.65
2023-04-10T22:47:58.317Z,50.63
2023-04-10T22:50:25.708Z,51.40
2023-04-10T22:52:52.882Z,48.05
2023-04-10T22:55:20.167Z,47.25
2023-04-10T22:57:48.979Z,46.03
2023-04-10T23:00:16.626Z,47.15
2023-04-10T23:02:43.871Z,54.28
2023-04-10T23:05:11.262Z,51.08
2023-04-10T23:07:38.456Z,48.97
2023-04-10T23:10:06.264Z,46.20
2023-04-10T23:12:33.517Z,50.78
2023-04-10T23:15:00.797Z,46.75
2023-04-10T23:17:27.997Z,46.92
2023-04-10T23:19:55.201Z,43.95
2023-04-10T23:22:22.329Z,43.80
2023-04-10T23:24:54.571Z,47.72
2023-04-10T23:27:22.329Z,44.55
2023-04-10T23:29:50.235Z,44.25
2023-04-10T23:32:17.425Z,43.95
2023-04-10T23:34:44.707Z,46.63
2023-04-10T23:37:11.942Z,46.42
2023-04-10T23:39:39.631Z,45.78
2023-04-10T23:42:07.002Z,42.58
2023-04-10T23:44:34.158Z,44.63
2023-04-10T23:47:01.532Z,45.72
2023-04-10T23:49:28.988Z,43.88
2023-04-10T23:51:56.146Z,43.85
2023-04-10T23:54:23.277Z,47.38
2023-04-10T23:56:50.436Z,46.00
2023-04-10T23:59:19.156Z,50.00
